Flight Track Log - Related Links

Times and Time Zones

All times are in EDT time to prevent confusion due to time zone crossing. See the AAL8 flight status page for this flight to view local times or setup timezone preferences in your user account.

Time Position Orientation Groundspeed Altitude Reporting Facility
EDT Latitude Longitude Course Direction KTS MPH feet Rate Location/Type
Tue 11:18:00 PM 21.2053 -157.5009 108° East  Level FlightAware Approximate
Tue 11:18:46 PM 21.2010 -157.7330 100° East 279 321 8,400  Level FlightAware ADS-B
Tue 11:19:00 PM 21.1767 -157.3601 100° East  Level FlightAware Approximate
Tue 11:19:11 PM 21.2070 -157.6960 80° East 297 342 9,400  Level FlightAware ADS-B
Tue 11:19:51 PM 21.2130 -157.6390 84° East 313 360 10,900 1,976 Climbing FlightAware ADS-B
Tue 11:20:36 PM 21.2200 -157.5640 84° East 348 400 12,200 1,765 Climbing FlightAware ADS-B
Tue 11:21:16 PM 21.2290 -157.4860 83° East 391 450 13,400 1,906 Climbing FlightAware ADS-B
Tue 11:22:01 PM 21.2410 -157.3980 82° East 416 479 14,900 2,329 Climbing FlightAware ADS-B
Tue 11:22:41 PM 21.2500 -157.3180 83° East 418 481 16,700 2,400 Climbing FlightAware ADS-B
Tue 11:23:21 PM 21.2590 -157.2330 84° East 433 498 18,100 2,188 Climbing FlightAware ADS-B
Tue 11:24:06 PM 21.2710 -157.1370 82° East 443 510 19,800 1,786 Climbing FlightAware ADS-B
Tue 11:24:45 PM 21.2820 -157.0580 81° East 464 534 20,600 615 Climbing FlightAware ADS-B
Tue 11:25:24 PM 21.2930 -156.9820 81° East 464 534 20,600  Level FlightAware ADS-B
Tue 11:26:12 PM 21.3070 -156.8890 81° East 464 534 20,600  Level FlightAware ADS-B
Tue 11:26:48 PM 21.3170 -156.8200 81° East 464 534 20,600  Level FlightAware ADS-B
Tue 11:27:24 PM 21.3270 -156.7500 81° East 464 534 20,600  Level FlightAware ADS-B
Tue 11:28:00 PM 21.3370 -156.6800 81° East 464 534 20,600 5,134 Level FlightAware ADS-B
Tue 11:29:01 PM 21.3667 -156.4333 81° East 500 575 28,900 4,918 Climbing Honolulu Center
Tue 11:30:02 PM 21.3833 -156.2833 83° East 510 587 30,600 1,636 Climbing Honolulu Center
Tue 11:31:02 PM 21.4000 -156.1333 83° East 500 575 32,200 1,500 Climbing Honolulu Center
Tue 11:32:02 PM 21.4167 -155.9833 83° East 500 575 33,600 1,240 Climbing Honolulu Center
Tue 11:33:03 PM 21.4167 -155.8500 90° East 510 587 34,700 694 Climbing Honolulu Center
Tue 11:34:03 PM 21.4500 -155.7000 77° East 510 587 35,000 150 Climbing Honolulu Center
Tue 11:35:03 PM 21.4500 -155.5500 90° East 500 575 35,000  Level Honolulu Center
Tue 11:36:04 PM 21.4667 -155.4000 83° East 490 564 35,000  Level Honolulu Center
Tue 11:37:04 PM 21.4833 -155.2667 82° East 490 564 35,000  Level Honolulu Center
Tue 11:38:05 PM 21.5000 -155.1167 83° East 490 564 35,000  Level Honolulu Center
Tue 11:39:05 PM 21.5167 -154.9667 83° East 500 575 35,000  Level Honolulu Center
Tue 11:40:05 PM 21.5333 -154.8167 83° East 500 575 35,000  Level Honolulu Center
Tue 11:41:06 PM 21.5500 -154.6667 83° East 510 587 35,000  Level Honolulu Center
Tue 11:42:06 PM 21.5667 -154.5167 83° East 510 587 35,000  Level Honolulu Center
Tue 11:43:06 PM 21.5833 -154.3667 83° East 510 587 35,000  Level Honolulu Center
Tue 11:44:07 PM 21.6000 -154.2167 83° East 510 587 35,000  Level Honolulu Center
Tue 11:45:07 PM 21.6667 -154.0500 67° East 510 587 35,000  Level Honolulu Center
Tue 11:46:07 PM 21.7000 -153.9167 75° East 510 587 35,000  Level Honolulu Center
Tue 11:47:08 PM 21.7500 -153.7667 70° East 500 575 35,000  Level Honolulu Center
Tue 11:48:08 PM 21.8000 -153.6167 70° East 510 587 35,000  Level Honolulu Center
Tue 11:49:09 PM 21.8500 -153.4833 68° East 510 587 35,000  Level Honolulu Center
Tue 11:50:09 PM 21.9000 -153.3333 70° East 510 587 35,000  Level Honolulu Center
Tue 11:51:09 PM 21.9333 -153.1833 77° East 510 587 35,000  Level Honolulu Center
Tue 11:53:00 PM 22.0110 -152.9297 72° East  Level FlightAware Approximate
Wed 12:00:00 AM 22.3015 -151.9674 72° East  Level FlightAware Approximate
Wed 12:01:00 AM 22.3567 -151.8360 62° Northeast  Level FlightAware Approximate
Wed 12:01:12 AM 22.3500 -151.8833 62° Northeast 500 575 35,000  Level Oakland Oceanic (ODAPS)
Wed 12:02:00 AM 22.4196 -151.7082 62° Northeast  Level FlightAware Approximate
Wed 12:03:00 AM 22.4824 -151.5802 62° Northeast  Level FlightAware Approximate
Wed 12:04:00 AM 22.5451 -151.4521 62° Northeast  Level FlightAware Approximate
Wed 12:05:00 AM 22.6077 -151.3239 62° Northeast  Level FlightAware Approximate
Wed 12:06:00 AM 22.6702 -151.1956 62° Northeast  Level FlightAware Approximate
Wed 12:07:00 AM 22.8674 -150.8198 62° Northeast 500 575 35,000  Level FlightAware Transoceanic
Wed 12:08:00 AM 22.9316 -150.6863 62° Northeast 500 575 35,000  Level FlightAware Transoceanic
Wed 12:09:00 AM 22.9956 -150.5526 63° Northeast 500 575 35,000  Level FlightAware Transoceanic
Wed 12:10:00 AM 23.0596 -150.4189 63° Northeast 500 575 35,000  Level FlightAware Transoceanic
Wed 12:11:00 AM 23.1234 -150.2850 63° Northeast 500 575 35,000  Level FlightAware Transoceanic
Wed 12:12:00 AM 23.1872 -150.1510 63° Northeast 500 575 35,000  Level FlightAware Transoceanic
Wed 12:13:00 AM 23.2508 -150.0168 63° Northeast 500 575 35,000  Level FlightAware Transoceanic
Wed 12:14:00 AM 23.3143 -149.8825 63° Northeast 500 575 35,000  Level FlightAware Transoceanic
Wed 12:15:00 AM 23.3777 -149.7481 63° Northeast 500 575 35,000  Level FlightAware Transoceanic
Wed 12:16:00 AM 23.4409 -149.6136 63° Northeast 500 575 35,000  Level FlightAware Transoceanic
Wed 12:17:00 AM 23.5041 -149.4789 63° Northeast 500 575 35,000  Level FlightAware Transoceanic
Wed 12:18:00 AM 23.5671 -149.3442 63° Northeast 500 575 35,000  Level FlightAware Transoceanic
Wed 12:19:00 AM 23.6301 -149.2092 63° Northeast 500 575 35,000  Level FlightAware Transoceanic
Wed 12:20:00 AM 23.6929 -149.0742 63° Northeast 500 575 35,000  Level FlightAware Transoceanic
Wed 12:21:00 AM 23.7556 -148.9390 63° Northeast 500 575 35,000  Level FlightAware Transoceanic
Wed 12:22:00 AM 23.8181 -148.8037 63° Northeast 500 575 35,000  Level FlightAware Transoceanic
Wed 12:23:00 AM 23.8806 -148.6683 63° Northeast 500 575 35,000  Level FlightAware Transoceanic
Wed 12:24:00 AM 23.9429 -148.5327 63° Northeast 500 575 35,000  Level FlightAware Transoceanic
Wed 12:25:00 AM 24.0051 -148.3970 63° Northeast 500 575 35,000  Level FlightAware Transoceanic
Wed 12:26:00 AM 24.0672 -148.2612 63° Northeast 500 575 35,000  Level FlightAware Transoceanic
Wed 12:27:00 AM 24.1292 -148.1252 63° Northeast 500 575 35,000  Level FlightAware Transoceanic
Wed 12:28:00 AM 24.1911 -147.9891 64° Northeast 500 575 35,000  Level FlightAware Transoceanic
Wed 12:29:00 AM 24.2528 -147.8529 64° Northeast 500 575 35,000  Level FlightAware Transoceanic
Wed 12:30:00 AM 24.3144 -147.7166 64° Northeast 500 575 35,000  Level FlightAware Transoceanic
Wed 12:31:00 AM 24.3759 -147.5801 64° Northeast 500 575 35,000  Level FlightAware Transoceanic
Wed 12:32:00 AM 24.4373 -147.4434 64° Northeast 500 575 35,000  Level FlightAware Transoceanic
Wed 12:33:00 AM 24.4985 -147.3067 64° Northeast 500 575 35,000  Level FlightAware Transoceanic
Wed 12:34:00 AM 24.5596 -147.1698 64° Northeast 500 575 35,000  Level FlightAware Transoceanic
Wed 12:35:00 AM 24.6206 -147.0328 64° Northeast 500 575 35,000  Level FlightAware Transoceanic
Wed 12:36:00 AM 24.6815 -146.8956 64° Northeast 500 575 35,000  Level FlightAware Transoceanic
Wed 12:37:00 AM 24.7423 -146.7583 64° Northeast 500 575 35,000  Level FlightAware Transoceanic
Wed 12:38:00 AM 24.8029 -146.6209 64° Northeast 500 575 35,000  Level FlightAware Transoceanic
Wed 12:39:00 AM 24.8634 -146.4834 64° Northeast 500 575 35,000  Level FlightAware Transoceanic
Wed 12:40:00 AM 24.9238 -146.3457 64° Northeast 500 575 35,000  Level FlightAware Transoceanic
Wed 12:41:00 AM 24.9840 -146.2078 64° Northeast 500 575 35,000  Level FlightAware Transoceanic
Wed 12:42:00 AM 25.0441 -146.0699 64° Northeast 500 575 35,000  Level FlightAware Transoceanic
Wed 12:43:00 AM 25.1041 -145.9318 64° Northeast 500 575 35,000  Level FlightAware Transoceanic
Wed 12:44:00 AM 25.1640 -145.7935 64° Northeast 500 575 35,000  Level FlightAware Transoceanic
Wed 12:45:00 AM 25.2237 -145.6552 65° Northeast 500 575 35,000  Level FlightAware Transoceanic
Wed 12:46:00 AM 25.2833 -145.5167 65° Northeast 500 575 35,000  Level FlightAware Transoceanic
Wed 12:47:00 AM 25.3425 -145.3780 65° Northeast 500 575 35,000  Level FlightAware Transoceanic
Wed 12:48:00 AM 25.4016 -145.2392 65° Northeast 500 575 35,000  Level FlightAware Transoceanic
Wed 12:48:38 AM 25.2833 -145.5167 65° Northeast 498 573 35,000  Level Oakland Oceanic (ODAPS)
Wed 12:49:00 AM 25.4605 -145.1003 65° Northeast 500 575 35,000  Level FlightAware Transoceanic
Wed 12:50:00 AM 25.5193 -144.9612 65° Northeast 500 575 35,000  Level FlightAware Transoceanic
Wed 12:51:00 AM 25.5779 -144.8220 65° Northeast 500 575 35,000  Level FlightAware Transoceanic
Wed 12:52:00 AM 25.6365 -144.6826 65° Northeast 500 575 35,000  Level FlightAware Transoceanic
Wed 12:53:00 AM 25.6949 -144.5431 65° Northeast 500 575 35,000  Level FlightAware Transoceanic
Wed 12:54:00 AM 25.6949 -144.5431 65° Northeast 498 573 35,000  Level FlightAware Transoceanic
Wed 12:55:00 AM 25.7531 -144.4035 65° Northeast 498 573 35,000  Level FlightAware Transoceanic
Wed 12:56:00 AM 25.8113 -144.2637 65° Northeast 498 573 35,000  Level FlightAware Transoceanic
Wed 12:57:00 AM 25.8692 -144.1239 65° Northeast 498 573 35,000  Level FlightAware Transoceanic
Wed 12:58:00 AM 25.9271 -143.9838 65° Northeast 498 573 35,000  Level FlightAware Transoceanic
Wed 12:59:00 AM 25.9848 -143.8436 65° Northeast 498 573 35,000  Level FlightAware Transoceanic
Wed 01:00:00 AM 26.0424 -143.7033 65° Northeast 498 573 35,000  Level FlightAware Transoceanic
Wed 01:01:00 AM 26.0999 -143.5629 66° East 498 573 35,000  Level FlightAware Transoceanic
Wed 01:02:00 AM 26.1572 -143.4223 66° East 498 573 35,000  Level FlightAware Transoceanic
Wed 01:03:00 AM 26.2144 -143.2816 66° East 498 573 35,000  Level FlightAware Transoceanic
Wed 01:04:00 AM 26.2714 -143.1407 66° East 498 573 35,000  Level FlightAware Transoceanic
Wed 01:05:00 AM 26.3283 -142.9997 66° East 498 573 35,000  Level FlightAware Transoceanic
Wed 01:06:00 AM 26.3851 -142.8586 66° East 498 573 35,000  Level FlightAware Transoceanic
Wed 01:07:00 AM 26.4417 -142.7173 66° East 498 573 35,000  Level FlightAware Transoceanic
Wed 01:08:00 AM 26.4982 -142.5759 66° East 498 573 35,000  Level FlightAware Transoceanic
Wed 01:09:00 AM 26.5546 -142.4343 66° East 498 573 35,000  Level FlightAware Transoceanic
Wed 01:10:00 AM 26.6108 -142.2926 66° East 498 573 35,000  Level FlightAware Transoceanic
Wed 01:11:00 AM 26.6669 -142.1508 66° East 498 573 35,000  Level FlightAware Transoceanic
Wed 01:12:00 AM 26.7228 -142.0088 66° East 498 573 35,000  Level FlightAware Transoceanic
Wed 01:13:00 AM 26.7786 -141.8667 66° East 498 573 35,000  Level FlightAware Transoceanic
Wed 01:14:00 AM 26.8342 -141.7245 66° East 498 573 35,000  Level FlightAware Transoceanic
Wed 01:15:00 AM 26.8897 -141.5821 66° East 498 573 35,000  Level FlightAware Transoceanic
Wed 01:16:00 AM 26.9451 -141.4395 66° East 498 573 35,000  Level FlightAware Transoceanic
Wed 01:17:00 AM 27.0003 -141.2969 67° East 498 573 35,000  Level FlightAware Transoceanic
Wed 01:18:00 AM 27.0554 -141.1541 67° East 498 573 35,000  Level FlightAware Transoceanic
Wed 01:19:00 AM 27.1103 -141.0111 67° East 498 573 35,000  Level FlightAware Transoceanic
Wed 01:20:00 AM 27.1651 -140.8680 67° East 498 573 35,000  Level FlightAware Transoceanic
Wed 01:21:00 AM 27.2198 -140.7248 67° East 498 573 35,000  Level FlightAware Transoceanic
Wed 01:22:00 AM 27.2743 -140.5814 67° East 498 573 35,000  Level FlightAware Transoceanic
Wed 01:23:00 AM 27.3286 -140.4379 67° East 498 573 35,000  Level FlightAware Transoceanic
Wed 01:24:00 AM 27.3828 -140.2943 67° East 498 573 35,000  Level FlightAware Transoceanic
Wed 01:25:00 AM 27.4369 -140.1505 67° East 498 573 35,000  Level FlightAware Transoceanic
Wed 01:26:00 AM 27.4908 -140.0065 67° East 498 573 35,000  Level FlightAware Transoceanic
Wed 01:27:00 AM 27.5445 -139.8625 67° East 498 573 35,000  Level FlightAware Transoceanic
Wed 01:28:00 AM 27.5982 -139.7182 67° East 498 573 35,000  Level FlightAware Transoceanic
Wed 01:29:00 AM 27.6516 -139.5739 67° East 498 573 35,000  Level FlightAware Transoceanic
Wed 01:30:00 AM 27.7049 -139.4294 67° East 498 573 35,000  Level FlightAware Transoceanic
Wed 01:31:00 AM 27.7581 -139.2848 67° East 498 573 35,000  Level FlightAware Transoceanic
Wed 01:32:00 AM 27.8111 -139.1400 68° East 498 573 35,000  Level FlightAware Transoceanic
Wed 01:33:00 AM 27.8640 -138.9951 68° East 498 573 35,000  Level FlightAware Transoceanic
Wed 01:34:00 AM 27.9167 -138.8500 68° East 498 573 35,000  Level FlightAware Transoceanic
Wed 01:35:00 AM 27.9687 -138.7061 68° East 498 573 35,000  Level FlightAware Transoceanic
Wed 01:35:49 AM 27.9167 -138.8500 68° East 495 570 35,000  Level Oakland Oceanic (ODAPS)
Wed 01:36:00 AM 28.0207 -138.5620 68° East 498 573 35,000  Level FlightAware Transoceanic
Wed 01:37:00 AM 28.0724 -138.4177 68° East 498 573 35,000  Level FlightAware Transoceanic
Wed 01:38:00 AM 28.1241 -138.2734 68° East 498 573 35,000  Level FlightAware Transoceanic
Wed 01:39:00 AM 28.1755 -138.1289 68° East 498 573 35,000  Level FlightAware Transoceanic
Wed 01:40:00 AM 28.2269 -137.9842 68° East 498 573 35,000  Level FlightAware Transoceanic
Wed 01:41:00 AM 28.2780 -137.8394 68° East 495 570 35,000  Level FlightAware Transoceanic
Wed 01:42:00 AM 28.3291 -137.6945 68° East 495 570 35,000  Level FlightAware Transoceanic
Wed 01:43:00 AM 28.3799 -137.5494 68° East 495 570 35,000  Level FlightAware Transoceanic
Wed 01:44:00 AM 28.4306 -137.4042 68° East 495 570 35,000  Level FlightAware Transoceanic
Wed 01:45:00 AM 28.4812 -137.2589 68° East 495 570 35,000  Level FlightAware Transoceanic
Wed 01:46:00 AM 28.5316 -137.1134 69° East 495 570 35,000  Level FlightAware Transoceanic
Wed 01:47:00 AM 28.5818 -136.9678 69° East 495 570 35,000  Level FlightAware Transoceanic
Wed 01:48:00 AM 28.6319 -136.8220 69° East 495 570 35,000  Level FlightAware Transoceanic
Wed 01:49:00 AM 28.6818 -136.6761 69° East 495 570 35,000  Level FlightAware Transoceanic
Wed 01:50:00 AM 28.7316 -136.5301 69° East 495 570 35,000  Level FlightAware Transoceanic
Wed 01:51:00 AM 28.7812 -136.3839 69° East 495 570 35,000  Level FlightAware Transoceanic
Wed 01:52:00 AM 28.8307 -136.2376 69° East 495 570 35,000  Level FlightAware Transoceanic
Wed 01:53:00 AM 28.8800 -136.0912 69° East 495 570 35,000  Level FlightAware Transoceanic
Wed 01:54:00 AM 28.9291 -135.9446 69° East 495 570 35,000  Level FlightAware Transoceanic
Wed 01:55:00 AM 28.9781 -135.7979 69° East 495 570 35,000  Level FlightAware Transoceanic
Wed 01:56:00 AM 29.0270 -135.6510 69° East 495 570 35,000  Level FlightAware Transoceanic
Wed 01:57:00 AM 29.0756 -135.5040 69° East 495 570 35,000  Level FlightAware Transoceanic
Wed 01:58:00 AM 29.1241 -135.3568 69° East 495 570 35,000  Level FlightAware Transoceanic
Wed 01:59:00 AM 29.1725 -135.2095 69° East 495 570 35,000  Level FlightAware Transoceanic
Wed 02:00:00 AM 29.2207 -135.0621 70° East 495 570 35,000  Level FlightAware Transoceanic
Wed 02:01:00 AM 29.2687 -134.9146 70° East 495 570 35,000  Level FlightAware Transoceanic
Wed 02:02:00 AM 29.3166 -134.7669 70° East 495 570 35,000  Level FlightAware Transoceanic
Wed 02:03:00 AM 29.3643 -134.6190 70° East 495 570 35,000  Level FlightAware Transoceanic
Wed 02:04:00 AM 29.4118 -134.4711 70° East 495 570 35,000  Level FlightAware Transoceanic
Wed 02:05:00 AM 29.4592 -134.3229 70° East 495 570 35,000  Level FlightAware Transoceanic
Wed 02:06:00 AM 29.5064 -134.1747 70° East 495 570 35,000  Level FlightAware Transoceanic
Wed 02:07:00 AM 29.5534 -134.0263 70° East 495 570 35,000  Level FlightAware Transoceanic
Wed 02:08:00 AM 29.6003 -133.8778 70° East 495 570 35,000  Level FlightAware Transoceanic
Wed 02:09:00 AM 29.6470 -133.7291 70° East 495 570 35,000  Level FlightAware Transoceanic
Wed 02:10:00 AM 29.6936 -133.5803 70° East 495 570 35,000  Level FlightAware Transoceanic
Wed 02:11:00 AM 29.7399 -133.4313 70° East 495 570 35,000  Level FlightAware Transoceanic
Wed 02:12:00 AM 29.7861 -133.2823 70° East 495 570 35,000  Level FlightAware Transoceanic
Wed 02:13:00 AM 29.8322 -133.1330 70° East 495 570 35,000  Level FlightAware Transoceanic
Wed 02:14:00 AM 29.8781 -132.9837 71° East 495 570 35,000  Level FlightAware Transoceanic
Wed 02:15:00 AM 29.9238 -132.8342 71° East 495 570 35,000  Level FlightAware Transoceanic
Wed 02:16:00 AM 29.9693 -132.6846 71° East 495 570 35,000  Level FlightAware Transoceanic
Wed 02:17:00 AM 30.0147 -132.5348 71° East 495 570 35,000  Level FlightAware Transoceanic
Wed 02:18:00 AM 30.0599 -132.3849 71° East 495 570 35,000  Level FlightAware Transoceanic
Wed 02:19:00 AM 30.1049 -132.2349 71° East 495 570 35,000  Level FlightAware Transoceanic
Wed 02:20:00 AM 30.1498 -132.0847 71° East 495 570 35,000  Level FlightAware Transoceanic
Wed 02:21:00 AM 30.1945 -131.9344 71° East 495 570 35,000  Level FlightAware Transoceanic
Wed 02:22:00 AM 30.2390 -131.7839 71° East 495 570 35,000  Level FlightAware Transoceanic
Wed 02:23:00 AM 30.2833 -131.6333 71° East 495 570 35,000  Level FlightAware Transoceanic
Wed 02:24:00 AM 30.3278 -131.4828 71° East 495 570 35,000  Level FlightAware Transoceanic
Wed 02:24:27 AM 30.2833 -131.6333 71° East 495 570 35,000  Level Oakland Oceanic (ODAPS)
Wed 02:25:00 AM 30.3721 -131.3321 71° East 495 570 35,000  Level FlightAware Transoceanic
Wed 02:26:00 AM 30.4162 -131.1813 71° East 495 570 35,000  Level FlightAware Transoceanic
Wed 02:27:00 AM 30.4601 -131.0303 71° East 495 570 35,000  Level FlightAware Transoceanic
Wed 02:28:00 AM 30.5039 -130.8792 71° East 495 570 35,000  Level FlightAware Transoceanic
Wed 02:29:00 AM 30.5474 -130.7280 72° East 495 570 35,000  Level FlightAware Transoceanic
Wed 02:30:00 AM 30.5908 -130.5766 72° East 495 570 35,000  Level FlightAware Transoceanic
Wed 02:31:00 AM 30.6341 -130.4251 72° East 495 570 35,000  Level FlightAware Transoceanic
Wed 02:32:00 AM 30.6771 -130.2735 72° East 495 570 35,000  Level FlightAware Transoceanic
Wed 02:33:00 AM 30.7200 -130.1217 72° East 495 570 35,000  Level FlightAware Transoceanic
Wed 02:34:00 AM 30.7627 -129.9698 72° East 495 570 35,000  Level FlightAware Transoceanic
Wed 02:35:00 AM 30.8052 -129.8178 72° East 495 570 35,000  Level FlightAware Transoceanic
Wed 02:36:00 AM 30.8476 -129.6656 72° East 495 570 35,000  Level FlightAware Transoceanic
Wed 02:37:00 AM 30.8897 -129.5133 72° East 495 570 35,000  Level FlightAware Transoceanic
Wed 02:38:00 AM 30.9317 -129.3608 72° East 495 570 35,000  Level FlightAware Transoceanic
Wed 02:39:00 AM 30.9736 -129.2083 72° East 495 570 35,000  Level FlightAware Transoceanic
Wed 02:40:00 AM 31.0152 -129.0555 72° East 495 570 35,000  Level FlightAware Transoceanic
Wed 02:41:00 AM 31.0566 -128.9027 72° East 495 570 35,000  Level FlightAware Transoceanic
Wed 02:42:00 AM 31.0979 -128.7497 73° East 495 570 35,000  Level FlightAware Transoceanic
Wed 02:43:00 AM 31.1390 -128.5966 73° East 495 570 35,000  Level FlightAware Transoceanic
Wed 02:44:00 AM 31.1799 -128.4434 73° East 495 570 35,000  Level FlightAware Transoceanic
Wed 02:45:00 AM 31.2206 -128.2900 73° East 495 570 35,000  Level FlightAware Transoceanic
Wed 02:46:00 AM 31.2612 -128.1365 73° East 495 570 35,000  Level FlightAware Transoceanic
Wed 02:47:00 AM 31.3015 -127.9828 73° East 495 570 35,000  Level FlightAware Transoceanic
Wed 02:48:00 AM 31.3417 -127.8291 73° East 495 570 35,000  Level FlightAware Transoceanic
Wed 02:49:00 AM 31.3817 -127.6752 73° East 495 570 35,000  Level FlightAware Transoceanic
Wed 02:50:00 AM 31.4215 -127.5211 73° East 495 570 35,000  Level FlightAware Transoceanic
Wed 02:51:00 AM 31.4612 -127.3670 73° East 495 570 35,000  Level FlightAware Transoceanic
Wed 02:52:00 AM 31.5006 -127.2127 73° East 495 570 35,000  Level FlightAware Transoceanic
Wed 02:53:00 AM 31.5399 -127.0583 73° East 495 570 35,000  Level FlightAware Transoceanic
Wed 02:54:00 AM 31.5789 -126.9037 74° East 495 570 35,000  Level FlightAware Transoceanic
Wed 02:55:00 AM 31.6178 -126.7490 74° East 495 570 35,000  Level FlightAware Transoceanic
Wed 02:56:00 AM 31.6565 -126.5942 74° East 495 570 35,000  Level FlightAware Transoceanic
Wed 02:57:00 AM 31.6950 -126.4393 74° East 495 570 35,000  Level FlightAware Transoceanic
Wed 02:58:00 AM 31.7334 -126.2842 74° East 495 570 35,000  Level FlightAware Transoceanic
Wed 02:59:00 AM 31.7715 -126.1290 74° East 495 570 35,000  Level FlightAware Transoceanic
Wed 03:00:00 AM 31.8095 -125.9737 74° East 495 570 35,000  Level FlightAware Transoceanic
Wed 03:01:00 AM 31.8472 -125.8183 74° East 495 570 35,000  Level FlightAware Transoceanic
Wed 03:02:00 AM 31.8848 -125.6627 74° East 495 570 35,000  Level FlightAware Transoceanic
Wed 03:03:00 AM 31.9222 -125.5070 74° East 495 570 35,000  Level FlightAware Transoceanic
Wed 03:04:00 AM 31.9594 -125.3511 74° East 495 570 35,000  Level FlightAware Transoceanic
Wed 03:05:00 AM 31.9964 -125.1952 74° East 495 570 35,000  Level FlightAware Transoceanic
Wed 03:06:00 AM 32.0332 -125.0391 74° East 495 570 35,000  Level FlightAware Transoceanic
Wed 03:07:00 AM 32.0698 -124.8829 75° East 495 570 35,000  Level FlightAware Transoceanic
Wed 03:08:00 AM 32.1062 -124.7266 75° East 495 570 35,000  Level FlightAware Transoceanic
Wed 03:09:00 AM 32.1424 -124.5701 75° East 495 570 35,000  Level FlightAware Transoceanic
Wed 03:10:00 AM 32.1785 -124.4135 75° East 495 570 35,000  Level FlightAware Transoceanic
Wed 03:11:00 AM 32.2143 -124.2568 75° East 495 570 35,000  Level FlightAware Transoceanic
Wed 03:12:00 AM 32.2500 -124.1000 77° East 495 570 35,000  Level FlightAware Transoceanic
Wed 03:13:00 AM 32.2815 -123.9432 77° East 495 570 35,000  Level FlightAware Transoceanic
Wed 03:13:09 AM 32.2458 -124.0219 77° East 487 560 35,000  Level Los Angeles Center
Wed 03:14:00 AM 32.3129 -123.7862 77° East 495 570 35,000  Level FlightAware Transoceanic
Wed 03:14:09 AM 32.2794 -123.8675 76° East 486 559 35,000  Level Los Angeles Center
Wed 03:15:00 AM 32.3440 -123.6292 77° East 495 570 35,000  Level FlightAware Transoceanic
Wed 03:15:10 AM 32.3117 -123.7125 76° East 486 559 35,000  Level Los Angeles Center
Wed 03:16:00 AM 32.3750 -123.4721 77° East 495 570 35,000  Level FlightAware Transoceanic
Wed 03:16:10 AM 32.3453 -123.5600 75° East 483 556 35,000  Level Los Angeles Center
Wed 03:17:00 AM 32.4057 -123.3148 77° East 495 570 35,000  Level FlightAware Transoceanic
Wed 03:17:11 AM 32.3778 -123.4042 76° East 485 558 35,000  Level Los Angeles Center
Wed 03:18:00 AM 32.4363 -123.1575 77° East 495 570 35,000  Level FlightAware Transoceanic
Wed 03:18:11 AM 32.4106 -123.2483 76° East 487 560 35,000  Level Los Angeles Center
Wed 03:19:12 AM 32.4528 -123.0625 75° East 489 563 35,000  Level Los Angeles Center
Wed 03:20:12 AM 32.4853 -122.9072 76° East 488 562 35,000  Level Los Angeles Center
Wed 03:21:13 AM 32.5211 -122.7542 74° East 485 558 35,000  Level Los Angeles Center
Wed 03:22:13 AM 32.5547 -122.5989 76° East 486 559 35,000  Level Los Angeles Center
Wed 03:23:13 AM 32.5875 -122.4436 76° East 487 560 35,000  Level Los Angeles Center
Wed 03:24:26 AM 32.6197 -122.2878 76° East 486 559 35,000  Level Los Angeles Center
Wed 03:25:26 AM 32.6592 -122.1017 76° East 487 560 35,000  Level Los Angeles Center
Wed 03:26:27 AM 32.6981 -121.9608 72° East 470 541 35,000  Level Los Angeles Center
Wed 03:27:27 AM 32.7264 -121.7992 78° East 492 566 35,000  Level Los Angeles Center
Wed 03:28:28 AM 32.7611 -121.6497 75° East 482 555 35,000  Level Los Angeles Center
Wed 03:29:28 AM 32.7919 -121.4961 77° East 481 554 35,000  Level Los Angeles Center
Wed 03:34:57 AM 32.9180 -120.6950 77° East 475 547 35,000  Level FlightAware ADS-B
Wed 03:35:34 AM 32.9440 -120.5670 76° East 476 548 35,000  Level FlightAware ADS-B
Wed 03:36:16 AM 32.9650 -120.4570 77° East 476 548 35,000  Level FlightAware ADS-B
Wed 03:37:02 AM 32.9880 -120.3410 77° East 477 549 35,000  Level FlightAware ADS-B
Wed 03:37:34 AM 33.0040 -120.2600 77° East 478 550 35,000  Level FlightAware ADS-B
Wed 03:38:24 AM 33.0250 -120.1510 77° East 478 550 35,000  Level FlightAware ADS-B
Wed 03:39:04 AM 33.0490 -120.0260 77° East 479 551 35,000  Level FlightAware ADS-B
Wed 03:39:44 AM 33.0690 -119.9250 77° East 478 550 35,000  Level FlightAware ADS-B
Wed 03:40:26 AM 33.0900 -119.8140 77° East 479 551 35,000  Level FlightAware ADS-B
Wed 03:41:08 AM 33.1100 -119.7070 77° East 478 550 35,000  Level FlightAware ADS-B
Wed 03:41:51 AM 33.1310 -119.5990 77° East 478 550 35,000  Level FlightAware ADS-B
Wed 03:42:33 AM 33.1520 -119.4890 77° East 479 551 35,000  Level FlightAware ADS-B
Wed 03:43:15 AM 33.1720 -119.3820 77° East 479 551 35,000  Level FlightAware ADS-B
Wed 03:43:55 AM 33.1900 -119.2850 77° East 478 550 35,000  Level FlightAware ADS-B
Wed 03:44:39 AM 33.2120 -119.1650 78° East 478 550 35,000  Level FlightAware ADS-B
Wed 03:45:17 AM 33.2290 -119.0710 78° East 478 550 35,000  Level FlightAware ADS-B
Wed 03:46:03 AM 33.2520 -118.9470 77° East 478 550 35,000  Level FlightAware ADS-B
Wed 03:46:39 AM 33.2680 -118.8600 78° East 480 552 35,000  Level FlightAware ADS-B
Wed 03:47:23 AM 33.2900 -118.7400 78° East 483 556 35,000  Level FlightAware ADS-B
Wed 03:48:03 AM 33.3080 -118.6380 78° East 485 558 35,000  Level FlightAware ADS-B
Wed 03:48:43 AM 33.3270 -118.5320 78° East 487 560 35,000  Level FlightAware ADS-B
Wed 03:49:27 AM 33.3430 -118.4190 80° East 481 554 35,000  Level FlightAware ADS-B
Wed 03:50:05 AM 33.3420 -118.3160 91° East 477 549 35,000  Level FlightAware ADS-B
Wed 03:51:07 AM 33.3360 -118.1540 92° East 476 548 35,000  Level FlightAware ADS-B
Wed 03:51:39 AM 33.3330 -118.0680 92° East 476 548 35,000  Level FlightAware ADS-B
Wed 03:52:23 AM 33.3290 -117.9570 92° East 476 548 35,000  Level FlightAware ADS-B
Wed 03:53:03 AM 33.3240 -117.8480 93° East 476 548 35,000  Level FlightAware ADS-B
Wed 03:53:47 AM 33.3200 -117.7330 92° East 475 547 35,000  Level FlightAware ADS-B
Wed 03:54:27 AM 33.3160 -117.6260 93° East 474 545 35,000  Level FlightAware ADS-B
Wed 03:55:11 AM 33.3110 -117.5120 93° East 472 543 35,000  Level FlightAware ADS-B
Wed 03:55:51 AM 33.3060 -117.4090 93° East 471 542 35,000  Level FlightAware ADS-B
Wed 03:56:35 AM 33.3010 -117.2940 93° East 471 542 35,000  Level FlightAware ADS-B
Wed 03:57:13 AM 33.2970 -117.1960 93° East 470 541 35,000  Level FlightAware ADS-B
Wed 03:57:57 AM 33.2920 -117.0820 93° East 470 541 35,000  Level FlightAware ADS-B
Wed 03:58:41 AM 33.2870 -116.9690 93° East 470 541 35,000  Level FlightAware ADS-B
Wed 03:59:21 AM 33.2820 -116.8640 93° East 469 540 35,000  Level FlightAware ADS-B
Wed 04:00:05 AM 33.2760 -116.7510 94° East 467 537 35,000  Level FlightAware ADS-B
Wed 04:00:41 AM 33.2710 -116.6590 94° East 467 537 35,000  Level FlightAware ADS-B
Wed 04:01:21 AM 33.2660 -116.5560 93° East 467 537 35,000  Level FlightAware ADS-B
Wed 04:02:03 AM 33.2610 -116.4470 93° East 468 539 35,000  Level FlightAware ADS-B
Wed 04:02:39 AM 33.2560 -116.3560 94° East 468 539 35,000  Level FlightAware ADS-B
Wed 04:03:27 AM 33.2490 -116.2320 94° East 469 540 35,000  Level FlightAware ADS-B
Wed 04:04:11 AM 33.2430 -116.1180 94° East 468 539 35,000  Level FlightAware ADS-B
Wed 04:05:03 AM 33.2360 -115.9860 94° East 468 539 35,000  Level FlightAware ADS-B
Wed 04:05:42 AM 33.2300 -115.8850 94° East 468 539 35,000  Level FlightAware ADS-B
Wed 04:06:22 AM 33.2240 -115.7820 94° East 468 539 35,000  Level FlightAware ADS-B
Wed 04:07:06 AM 33.2170 -115.6650 94° East 468 539 35,000  Level FlightAware ADS-B
Wed 04:07:42 AM 33.2120 -115.5780 94° East 467 537 35,000  Level FlightAware ADS-B
Wed 04:08:27 AM 33.2050 -115.4650 94° East 468 539 35,000  Level FlightAware ADS-B
Wed 04:09:12 AM 33.1980 -115.3490 94° East 469 540 35,000  Level FlightAware ADS-B
Wed 04:09:52 AM 33.1920 -115.2490 94° East 470 541 35,000  Level FlightAware ADS-B
Wed 04:10:32 AM 33.1850 -115.1440 95° East 471 542 35,000  Level FlightAware ADS-B
Wed 04:10:57 AM 33.1810 -115.0810 94° East 471 542 35,000  Level FlightAware ADS-B
Wed 04:12:29 AM 33.1670 -114.8560 94° East 471 542 35,000  Level FlightAware ADS-B
Wed 04:13:03 AM 33.1620 -114.7810 95° East 471 542 35,000  Level FlightAware ADS-B
Wed 04:13:53 AM 33.1510 -114.6380 95° East 471 542 35,000  Level FlightAware ADS-B
Wed 04:14:35 AM 33.1450 -114.5370 94° East 468 539 35,000  Level FlightAware ADS-B
Wed 04:15:11 AM 33.1410 -114.4580 93° East 468 539 35,000  Level FlightAware ADS-B
Wed 04:15:59 AM 33.1340 -114.3530 95° East 468 539 35,000  Level FlightAware ADS-B
Wed 04:16:36 AM 33.1210 -114.1980 96° East 466 536 35,000  Level FlightAware ADS-B
Wed 04:17:22 AM 33.1120 -114.0810 95° East 466 536 35,000  Level FlightAware ADS-B
Wed 04:18:04 AM 33.1050 -113.9820 95° East 465 535 35,000  Level FlightAware ADS-B
Wed 04:18:41 AM 33.0990 -113.9020 95° East 465 535 35,000  Level FlightAware ADS-B
Wed 04:19:17 AM 33.0930 -113.8210 95° East 465 535 35,000 254 Level FlightAware ADS-B
Wed 04:20:03 AM 33.0830 -113.6970 95° East 35,000 366 Level FlightAware ADS-B
Wed 04:20:39 AM 33.0760 -113.6080 95° East 468 539 35,500 1,308 Climbing FlightAware ADS-B
Wed 04:21:21 AM 33.0670 -113.4910 95° East 465 535 36,700 938 Climbing FlightAware ADS-B
Wed 04:22:15 AM 33.0570 -113.3600 95° East 462 532 37,000 175 Climbing FlightAware ADS-B
Wed 04:23:04 AM 33.0450 -113.2090 95° East 459 528 37,000  Level FlightAware ADS-B
Wed 04:23:48 AM 33.0360 -113.0990 96° East 460 529 37,000  Level FlightAware ADS-B
Wed 04:24:28 AM 33.0280 -112.9980 95° East 461 531 37,000  Level FlightAware ADS-B
Wed 04:25:12 AM 33.0190 -112.8860 95° East 461 531 37,000  Level FlightAware ADS-B
Wed 04:25:52 AM 33.0100 -112.7860 96° East 462 532 37,000  Level FlightAware ADS-B
Wed 04:26:34 AM 33.0010 -112.6790 96° East 463 533 37,000  Level FlightAware ADS-B
Wed 04:27:16 AM 32.9920 -112.5720 96° East 463 533 37,000  Level FlightAware ADS-B
Wed 04:27:52 AM 32.9840 -112.4820 96° East 463 533 37,000  Level FlightAware ADS-B
Wed 04:28:32 AM 32.9750 -112.3790 96° East 463 533 37,000  Level FlightAware ADS-B
Wed 04:29:16 AM 32.9650 -112.2680 96° East 463 533 37,000  Level FlightAware ADS-B
Wed 04:30:00 AM 32.9560 -112.1570 95° East 464 534 37,000  Level FlightAware ADS-B
Wed 04:30:40 AM 32.9470 -112.0560 96° East 465 535 37,000  Level FlightAware ADS-B
Wed 04:31:20 AM 32.9380 -111.9540 96° East 465 535 37,000  Level FlightAware ADS-B
Wed 04:32:04 AM 32.9280 -111.8430 96° East 466 536 37,000  Level FlightAware ADS-B
Wed 04:32:34 AM 32.9210 -111.7650 96° East 467 537 37,000  Level FlightAware ADS-B
Wed 04:33:20 AM 32.9100 -111.6490 96° East 469 540 37,000  Level FlightAware ADS-B
Wed 04:34:00 AM 32.9000 -111.5440 96° East 470 541 37,000  Level FlightAware ADS-B
Wed 04:34:46 AM 32.8890 -111.4290 96° East 471 542 37,000  Level FlightAware ADS-B
Wed 04:35:27 AM 32.8780 -111.3230 97° East 473 544 37,000  Level FlightAware ADS-B
Wed 04:36:06 AM 32.8640 -111.2200 99° East 475 547 37,000  Level FlightAware ADS-B
Wed 04:36:52 AM 32.8440 -111.1020 101° East 475 547 37,000  Level FlightAware ADS-B
Wed 04:37:33 AM 32.8260 -110.9990 102° East 476 548 37,000  Level FlightAware ADS-B
Wed 04:38:17 AM 32.8060 -110.8840 102° East 477 549 37,000  Level FlightAware ADS-B
Wed 04:38:57 AM 32.7880 -110.7830 102° East 477 549 37,000  Level FlightAware ADS-B
Wed 04:39:34 AM 32.7730 -110.6930 101° East 478 550 37,000  Level FlightAware ADS-B
Wed 04:40:21 AM 32.7510 -110.5700 102° East 479 551 37,000  Level FlightAware ADS-B
Wed 04:41:02 AM 32.7320 -110.4620 102° East 479 551 37,000  Level FlightAware ADS-B
Wed 04:41:42 AM 32.7140 -110.3580 102° East 479 551 37,000  Level FlightAware ADS-B
Wed 04:42:28 AM 32.6930 -110.2410 102° East 478 550 37,000  Level FlightAware ADS-B
Wed 04:43:06 AM 32.6760 -110.1430 102° East 478 550 37,000  Level FlightAware ADS-B
Wed 04:43:53 AM 32.6550 -110.0240 102° East 479 551 37,000  Level FlightAware ADS-B
Wed 04:44:32 AM 32.6370 -109.9230 102° East 480 552 37,000  Level FlightAware ADS-B
Wed 04:45:14 AM 32.6170 -109.8130 102° East 480 552 37,000  Level FlightAware ADS-B
Wed 04:45:57 AM 32.5980 -109.7060 102° East 481 554 37,000  Level FlightAware ADS-B
Wed 04:46:38 AM 32.5780 -109.5980 102° East 481 554 37,000  Level FlightAware ADS-B
Wed 04:47:22 AM 32.5580 -109.4850 102° East 479 551 37,000  Level FlightAware ADS-B
Wed 04:48:02 AM 32.5390 -109.3830 102° East 478 550 37,000  Level FlightAware ADS-B
Wed 04:48:46 AM 32.5180 -109.2700 102° East 478 550 37,000  Level FlightAware ADS-B
Wed 04:49:26 AM 32.4990 -109.1680 102° East 479 551 37,000  Level FlightAware ADS-B
Wed 04:50:08 AM 32.4800 -109.0620 102° East 480 552 37,000  Level FlightAware ADS-B
Wed 04:50:50 AM 32.4600 -108.9540 102° East 482 555 37,000  Level FlightAware ADS-B
Wed 04:51:26 AM 32.4420 -108.8580 103° East 483 556 37,000  Level FlightAware ADS-B
Wed 04:52:25 AM 32.4160 -108.7170 102° East 484 557 37,000  Level FlightAware ADS-B
Wed 04:53:04 AM 32.3950 -108.6070 103° East 487 560 37,000  Level FlightAware ADS-B
Wed 04:54:00 AM 32.3690 -108.4720 103° East 37,000  Level FlightAware ADS-B
Wed 04:55:00 AM 32.3370 -108.3060 103° East 490 564 37,000  Level FlightAware ADS-B
Wed 04:55:46 AM 32.3220 -108.2110 101° East 490 564 37,000  Level FlightAware ADS-B
Wed 04:56:22 AM 32.3080 -108.1310 102° East 490 564 37,000  Level FlightAware ADS-B
Wed 04:57:10 AM 32.2910 -108.0230 101° East 490 564 37,000  Level FlightAware ADS-B
Wed 04:57:47 AM 32.2770 -107.9410 101° East 490 564 37,000  Level FlightAware ADS-B
Wed 04:58:23 AM 32.2640 -107.8600 101° East 490 564 37,000  Level FlightAware ADS-B
Wed 04:59:11 AM 32.2460 -107.7530 101° East 490 564 37,000  Level FlightAware ADS-B
Wed 04:59:47 AM 32.2330 -107.6720 101° East 490 564 37,000  Level FlightAware ADS-B
Wed 05:00:45 AM 32.2120 -107.5430 101° East 490 564 37,000  Level FlightAware ADS-B
Wed 05:02:13 AM 32.1790 -107.3460 101° East 490 564 37,000  Level FlightAware ADS-B
Wed 05:02:46 AM 32.1190 -107.0990 106° East 502 578 37,000  Level FlightAware ADS-B
Wed 05:03:32 AM 32.1010 -106.9350 97° East 503 579 37,000  Level FlightAware ADS-B
Wed 05:04:12 AM 32.0890 -106.8260 97° East 504 580 37,000  Level FlightAware ADS-B
Wed 05:04:52 AM 32.0760 -106.7180 98° East 504 580 37,000  Level FlightAware ADS-B
Wed 05:05:37 AM 32.0610 -106.5950 98° East 506 582 37,000  Level FlightAware ADS-B
Wed 05:06:22 AM 32.0470 -106.4740 98° East 508 585 37,000  Level FlightAware ADS-B
Wed 05:07:12 AM 32.0300 -106.3370 98° East 509 586 37,000  Level FlightAware ADS-B
Wed 05:07:47 AM 32.0180 -106.2420 98° East 511 588 37,000  Level FlightAware ADS-B
Wed 05:08:27 AM 32.0050 -106.1390 98° East 513 590 37,000  Level FlightAware ADS-B
Wed 05:09:17 AM 31.9900 -106.0110 98° East 513 590 37,000  Level FlightAware ADS-B
Wed 05:09:53 AM 31.9800 -105.9270 98° East 513 590 37,000  Level FlightAware ADS-B
Wed 05:10:40 AM 31.9660 -105.8160 98° East 513 590 37,000  Level FlightAware ADS-B
Wed 05:11:40 AM 31.9500 -105.6750 98° East 513 590 37,000  Level FlightAware ADS-B
Wed 05:12:28 AM 31.9360 -105.5620 98° East 513 590 37,000  Level FlightAware ADS-B
Wed 05:13:04 AM 31.9260 -105.4770 98° East 513 590 37,000  Level FlightAware ADS-B
Wed 05:13:52 AM 31.9130 -105.3640 98° East 513 590 37,000  Level FlightAware ADS-B
Wed 05:14:28 AM 31.9020 -105.2790 99° East 513 590 37,000  Level FlightAware ADS-B
Wed 05:15:36 AM 31.8830 -105.1190 98° East 513 590 37,000  Level FlightAware ADS-B
Wed 05:16:54 AM 31.8610 -104.9360 98° East 513 590 37,000  Level FlightAware ADS-B
Wed 05:17:41 AM 31.8090 -104.6310 101° East 527 606 37,000  Level FlightAware ADS-B
Wed 05:18:15 AM 31.7980 -104.5490 99° East 527 606 37,000  Level FlightAware ADS-B
Wed 05:19:03 AM 31.7820 -104.4340 99° East 527 606 37,000  Level FlightAware ADS-B
Wed 05:19:39 AM 31.7700 -104.3470 99° East 527 606 37,000  Level FlightAware ADS-B
Wed 05:20:27 AM 31.7550 -104.2320 99° East 527 606 37,000  Level FlightAware ADS-B
Wed 05:21:03 AM 31.7430 -104.1450 99° East 527 606 37,000  Level FlightAware ADS-B
Wed 05:21:51 AM 31.7280 -104.0290 99° East 527 606 37,000  Level FlightAware ADS-B
Wed 05:22:27 AM 31.7160 -103.9430 99° East 527 606 37,000  Level FlightAware ADS-B
Wed 05:23:03 AM 31.7040 -103.8560 99° East 527 606 37,000  Level FlightAware ADS-B
Wed 05:23:51 AM 31.6890 -103.7410 99° East 527 606 37,000  Level FlightAware ADS-B
Wed 05:24:27 AM 31.6770 -103.6540 99° East 527 606 37,000  Level FlightAware ADS-B
Wed 05:25:03 AM 31.6650 -103.5680 99° East 527 606 37,000  Level FlightAware ADS-B
Wed 05:25:51 AM 31.6500 -103.4520 99° East 527 606 37,000  Level FlightAware ADS-B
Wed 05:26:27 AM 31.6380 -103.3660 99° East 527 606 37,000  Level FlightAware ADS-B
Wed 05:27:55 AM 31.5610 -102.9260 101° East 491 565 37,000  Level FlightAware ADS-B
Wed 05:28:35 AM 31.5460 -102.8220 100° East 491 565 37,000  Level FlightAware ADS-B
Wed 05:29:14 AM 31.5350 -102.7200 97° East 494 568 37,000  Level FlightAware ADS-B
Wed 05:29:51 AM 31.5320 -102.6190 92° East 499 574 37,000  Level FlightAware ADS-B
Wed 05:30:37 AM 31.5520 -102.5350 74° East 500 575 37,000  Level FlightAware ADS-B
Wed 05:31:53 AM 31.6030 -102.3400 73° East 497 572 37,000  Level FlightAware ADS-B
Wed 05:32:43 AM 31.6460 -102.1740 73° East 495 570 37,000  Level FlightAware ADS-B
Wed 05:33:23 AM 31.6730 -102.0710 73° East 494 568 37,000  Level FlightAware ADS-B
Wed 05:34:03 AM 31.6990 -101.9720 73° East 491 565 37,000  Level FlightAware ADS-B
Wed 05:34:49 AM 31.7290 -101.8560 73° East 489 563 37,000  Level FlightAware ADS-B
Wed 05:35:29 AM 31.7560 -101.7510 73° East 488 562 37,000  Level FlightAware ADS-B
Wed 05:36:13 AM 31.7840 -101.6410 73° East 487 560 37,000  Level FlightAware ADS-B
Wed 05:36:48 AM 31.8050 -101.5560 74° East 487 560 37,000  Level FlightAware ADS-B
Wed 05:37:37 AM 31.8380 -101.4300 73° East 486 559 37,000  Level FlightAware ADS-B
Wed 05:38:11 AM 31.8600 -101.3420 74° East 484 557 37,000  Level FlightAware ADS-B
Wed 05:38:53 AM 31.8860 -101.2380 74° East 482 555 37,000  Level FlightAware ADS-B
Wed 05:39:34 AM 31.9120 -101.1370 73° East 481 554 37,000  Level FlightAware ADS-B
Wed 05:40:13 AM 31.9370 -101.0350 74° East 480 552 37,000  Level FlightAware ADS-B
Wed 05:40:53 AM 31.9630 -100.9350 73° East 479 551 37,000  Level FlightAware ADS-B
Wed 05:41:33 AM 31.9870 -100.8370 74° East 479 551 37,000  Level FlightAware ADS-B
Wed 05:42:13 AM 32.0120 -100.7380 73° East 478 550 37,000  Level FlightAware ADS-B
Wed 05:42:57 AM 32.0400 -100.6270 73° East 476 548 37,000  Level FlightAware ADS-B
Wed 05:43:41 AM 32.0670 -100.5150 74° East 475 547 37,000  Level FlightAware ADS-B
Wed 05:44:21 AM 32.0920 -100.4150 74° East 475 547 37,000  Level FlightAware ADS-B
Wed 05:46:29 AM 32.1610 -100.1350 74° East 475 547 37,000  Level FlightAware ADS-B
Wed 05:47:09 AM 32.1860 -100.0350 74° East 475 547 37,000  Level FlightAware ADS-B
Wed 05:47:55 AM 32.2220 -99.8850 74° East 475 547 37,000  Level FlightAware ADS-B
Wed 05:48:35 AM 32.2460 -99.7860 74° East 475 547 37,000  Level FlightAware ADS-B
Wed 05:49:15 AM 32.2710 -99.6850 74° East 473 544 37,000  Level FlightAware ADS-B
Wed 05:49:51 AM 32.2920 -99.5970 74° East 472 543 37,000  Level FlightAware ADS-B
Wed 05:50:33 AM 32.3160 -99.4950 74° East 471 542 37,000  Level FlightAware ADS-B
Wed 05:51:17 AM 32.3430 -99.3840 74° East 469 540 37,000  Level FlightAware ADS-B
Wed 05:51:53 AM 32.3650 -99.2940 74° East 467 537 37,000  Level FlightAware ADS-B
Wed 05:52:37 AM 32.3910 -99.1850 74° East 466 536 37,000  Level FlightAware ADS-B
Wed 05:53:23 AM 32.4160 -99.0790 74° East 465 535 37,000  Level FlightAware ADS-B
Wed 05:54:03 AM 32.4400 -98.9760 75° East 464 534 37,000  Level FlightAware ADS-B
Wed 05:54:39 AM 32.4610 -98.8890 74° East 462 532 37,000 -538 Level FlightAware ADS-B
Wed 05:55:21 AM 32.4850 -98.7880 74° East 462 532 36,300 -1,271 Descending FlightAware ADS-B
Wed 05:56:04 AM 32.5090 -98.6850 75° East 467 537 35,200 -1,950 Descending FlightAware ADS-B
Wed 05:56:41 AM 32.5310 -98.5900 75° East 468 539 33,700 -2,805 Descending FlightAware ADS-B
Wed 05:57:21 AM 32.5540 -98.4890 75° East 473 544 31,600 -2,741 Descending FlightAware ADS-B
Wed 05:58:02 AM 32.5780 -98.3890 74° East 463 533 30,000 -2,357 Descending FlightAware ADS-B
Wed 05:58:45 AM 32.6020 -98.2840 75° East 454 522 28,300 -2,313 Descending FlightAware ADS-B
Wed 05:59:25 AM 32.6240 -98.1900 74° East 445 512 26,800 -2,643 Descending FlightAware ADS-B
Wed 06:00:09 AM 32.6480 -98.0840 75° East 444 511 24,600 -2,634 Descending FlightAware ADS-B
Wed 06:00:47 AM 32.6670 -98.0000 75° East 435 501 23,200 -2,296 Descending FlightAware ADS-B
Wed 06:01:30 AM 32.6900 -97.8980 75° East 423 487 21,500 -2,188 Descending FlightAware ADS-B
Wed 06:02:12 AM 32.7100 -97.8090 75° East 411 473 20,100 -2,138 Descending FlightAware ADS-B
Wed 06:02:57 AM 32.7330 -97.7110 74° East 401 461 18,400 -2,188 Descending FlightAware ADS-B
Wed 06:03:37 AM 32.7500 -97.6350 75° East 394 453 17,000 -2,222 Descending FlightAware ADS-B
Wed 06:04:18 AM 32.7740 -97.5430 73° East 388 447 15,400 -2,370 Descending FlightAware ADS-B
Wed 06:04:58 AM 32.8070 -97.4690 62° Northeast 374 430 13,800 -2,824 Descending FlightAware ADS-B
Wed 06:05:43 AM 32.8440 -97.3890 61° Northeast 359 413 11,400 -2,400 Descending FlightAware ADS-B
Wed 06:06:23 AM 32.8740 -97.3230 62° Northeast 320 368 10,400 -1,286 Descending FlightAware ADS-B
Wed 06:06:53 AM 32.8940 -97.2800 61° Northeast 284 327 9,900 -1,500 Descending FlightAware ADS-B
Wed 06:07:23 AM 32.9110 -97.2440 61° Northeast 276 318 8,900 -1,950 Descending FlightAware ADS-B
Wed 06:07:33 AM 32.9180 -97.2280 62° Northeast 269 310 8,600 -2,049 Descending FlightAware ADS-B
Wed 06:08:04 AM 32.9460 -97.1990 41° Northeast 272 313 7,500 -2,182 Descending FlightAware ADS-B
Wed 06:08:28 AM 32.9750 -97.1920 11° North 274 315 6,600 -2,077 Descending FlightAware ADS-B
Wed 06:08:56 AM 33.0120 -97.1850 North 255 293 5,700 -1,692 Descending FlightAware ADS-B
Wed 06:09:07 AM 33.0230 -97.1820 13° North 247 284 5,500 -1,463 Descending FlightAware ADS-B
Wed 06:09:37 AM 33.0560 -97.1740 11° North 223 257 4,700 -1,714 Descending FlightAware ADS-B
Wed 06:09:49 AM 33.0660 -97.1660 34° Northeast 209 241 4,300 -1,714 Descending FlightAware ADS-B
Wed 06:10:05 AM 33.0710 -97.1500 70° East 186 214 3,900 -1,286 Descending FlightAware ADS-B
Wed 06:10:31 AM 33.0710 -97.1250 90° East 177 204 3,400 -1,200 Descending FlightAware ADS-B
Wed 06:10:45 AM 33.0690 -97.1110 100° East 173 199 3,100 -1,000 Descending FlightAware ADS-B
Wed 06:11:01 AM 33.0620 -97.0990 125° Southeast 161 185 2,900 -414 Descending FlightAware ADS-B
Wed 06:11:43 AM 33.0380 -97.0780 144° Southeast 144 166 2,700 -537 Descending FlightAware ADS-B
Wed 06:12:08 AM 33.0250 -97.0750 169° South 146 168 2,300 -947 Descending FlightAware ADS-B
Wed 06:12:21 AM 33.0130 -97.0750 180° South 141 162 2,100 -698 Descending FlightAware ADS-B
Wed 06:12:51 AM 32.9930 -97.0750 180° South 146 168 1,800 -698 Descending FlightAware ADS-B
Wed 06:13:04 AM 32.9840 -97.0760 185° South 146 168 1,600 -818 Descending FlightAware ADS-B
Wed 06:13:35 AM 32.9640 -97.0760 180° South 139 160 1,200 -522 Descending FlightAware ADS-B
Wed 06:14:13 AM 32.9430 -97.0760 180° South 139 160 1,000 -316 Descending FlightAware ADS-B

Login

Don't have an account? Register now (free) for customized features, flight alerts, and more!